createdAt,value
2022-08-31T00:01:53.340Z,15.40
2022-08-31T00:06:44.983Z,15.35
2022-08-31T00:11:41.583Z,15.35
2022-08-31T00:16:36.559Z,15.34
2022-08-31T00:21:28.287Z,15.32
2022-08-31T00:26:21.266Z,15.33
2022-08-31T00:31:14.143Z,15.31
2022-08-31T00:36:09.593Z,15.29
2022-08-31T00:41:01.409Z,15.26
2022-08-31T00:45:53.244Z,15.23
2022-08-31T00:50:44.981Z,15.18
2022-08-31T00:55:37.699Z,15.17
2022-08-31T01:00:30.834Z,15.15
2022-08-31T01:05:22.952Z,15.12
2022-08-31T01:10:19.210Z,15.07
2022-08-31T01:15:11.687Z,15.02
2022-08-31T01:20:35.728Z,14.97
2022-08-31T01:25:33.726Z,14.89
2022-08-31T01:30:26.617Z,14.81
2022-08-31T01:35:19.395Z,14.75
2022-08-31T01:40:11.882Z,14.72
2022-08-31T01:45:05.970Z,14.68
2022-08-31T01:49:57.860Z,14.59
2022-08-31T01:54:49.707Z,14.58
2022-08-31T01:59:41.743Z,14.54
2022-08-31T02:04:33.509Z,14.53
2022-08-31T02:09:27.301Z,14.48
2022-08-31T02:14:19.947Z,14.42
2022-08-31T02:19:12.060Z,14.33
2022-08-31T02:24:04.900Z,14.29
2022-08-31T02:28:56.524Z,14.23
2022-08-31T02:33:48.333Z,14.18
2022-08-31T02:38:40.379Z,14.14
2022-08-31T02:43:32.753Z,14.11
2022-08-31T02:48:24.440Z,14.09
2022-08-31T02:53:18.128Z,14.05
2022-08-31T02:58:11.695Z,14.01
2022-08-31T03:03:03.672Z,13.96
2022-08-31T03:07:55.629Z,13.91
2022-08-31T03:12:49.018Z,13.88
2022-08-31T03:17:40.745Z,13.84
2022-08-31T03:22:33.211Z,13.82
2022-08-31T03:27:26.164Z,13.81
2022-08-31T03:32:18.510Z,13.81
2022-08-31T03:37:10.129Z,13.79
2022-08-31T03:42:01.812Z,13.76
2022-08-31T03:46:55.420Z,13.74
2022-08-31T03:51:48.735Z,13.72
2022-08-31T03:56:40.637Z,13.69
2022-08-31T04:01:32.335Z,13.68
2022-08-31T04:06:23.967Z,13.65
2022-08-31T04:11:18.497Z,13.60
2022-08-31T04:16:20.632Z,13.59
2022-08-31T04:21:14.714Z,13.58
2022-08-31T04:26:14.839Z,13.58
2022-08-31T04:31:09.742Z,13.57
2022-08-31T04:36:05.765Z,13.55
2022-08-31T04:40:57.868Z,13.55
2022-08-31T04:45:49.644Z,13.55
2022-08-31T04:50:42.971Z,13.53
2022-08-31T04:55:40.302Z,13.51
2022-08-31T05:00:32.039Z,13.48
2022-08-31T05:05:23.676Z,13.45
2022-08-31T05:10:15.743Z,13.41
2022-08-31T05:15:07.637Z,13.38
2022-08-31T05:19:59.642Z,13.36
2022-08-31T05:24:51.262Z,13.35
2022-08-31T05:29:42.858Z,13.34
2022-08-31T05:34:34.562Z,13.33
2022-08-31T05:39:26.415Z,13.33
2022-08-31T05:44:20.008Z,13.32
2022-08-31T05:49:11.885Z,13.30
2022-08-31T05:54:03.878Z,13.35
2022-08-31T05:58:56.520Z,13.40
2022-08-31T06:03:48.473Z,13.54
2022-08-31T06:08:41.265Z,14.07
2022-08-31T06:13:33.372Z,14.53
2022-08-31T06:18:25.638Z,15.05
2022-08-31T06:23:18.002Z,15.68
2022-08-31T06:28:14.379Z,16.29
2022-08-31T06:33:08.965Z,16.87
2022-08-31T06:38:00.702Z,17.43
2022-08-31T06:42:52.837Z,17.99
2022-08-31T06:47:44.604Z,18.46
2022-08-31T06:52:38.999Z,18.90
2022-08-31T06:57:30.963Z,19.30
2022-08-31T07:02:23.610Z,19.64
2022-08-31T07:07:15.341Z,20.08
2022-08-31T07:12:07.459Z,20.47
2022-08-31T07:17:03.052Z,20.73
2022-08-31T07:21:57.733Z,21.15
2022-08-31T07:26:53.190Z,21.52
2022-08-31T07:31:48.481Z,21.76
2022-08-31T07:36:59.318Z,21.92
2022-08-31T07:42:09.540Z,22.26
2022-08-31T07:47:01.585Z,22.41
2022-08-31T07:51:53.481Z,22.06
2022-08-31T07:56:46.650Z,21.92
2022-08-31T08:01:41.445Z,22.00
2022-08-31T08:06:34.151Z,21.79
2022-08-31T08:11:26.750Z,21.43
2022-08-31T08:16:19.257Z,20.96
2022-08-31T08:21:11.138Z,20.96
2022-08-31T08:26:08.940Z,21.55
2022-08-31T08:31:01.694Z,22.26
2022-08-31T08:36:03.161Z,22.69
2022-08-31T08:40:54.982Z,22.81
2022-08-31T08:45:51.693Z,23.22
2022-08-31T08:50:44.014Z,23.82
2022-08-31T08:55:40.860Z,24.04
2022-08-31T09:00:33.426Z,24.19
2022-08-31T09:05:59.284Z,24.04
2022-08-31T09:11:17.869Z,24.13
2022-08-31T09:16:50.949Z,24.27
2022-08-31T09:21:47.241Z,24.41
2022-08-31T09:26:54.570Z,24.46
2022-08-31T09:31:46.639Z,25.02
2022-08-31T09:36:41.422Z,25.47
2022-08-31T09:41:38.511Z,25.63
2022-08-31T09:46:33.285Z,25.60
2022-08-31T09:51:31.169Z,25.20
2022-08-31T09:56:24.321Z,25.17
2022-08-31T10:01:21.491Z,24.91
2022-08-31T10:06:58.181Z,24.90
2022-08-31T10:11:53.372Z,25.18
2022-08-31T10:16:53.471Z,24.92
2022-08-31T10:22:00.110Z,24.51
2022-08-31T10:27:03.126Z,24.50
2022-08-31T10:31:58.890Z,24.95
2022-08-31T10:36:59.989Z,25.39
2022-08-31T10:41:52.353Z,25.66
2022-08-31T10:46:45.731Z,24.89
2022-08-31T10:52:00.105Z,24.15
2022-08-31T10:57:21.563Z,23.55
2022-08-31T11:02:41.892Z,23.36
2022-08-31T11:08:17.811Z,23.69
2022-08-31T11:13:45.137Z,23.84
2022-08-31T11:19:09.418Z,23.66
2022-08-31T11:24:40.048Z,23.19
2022-08-31T11:29:56.932Z,23.21
2022-08-31T11:34:57.710Z,23.29
2022-08-31T11:39:51.553Z,23.37
2022-08-31T11:44:44.893Z,23.50
2022-08-31T11:49:47.518Z,23.85
2022-08-31T11:54:42.075Z,24.12
2022-08-31T11:59:38.692Z,24.29
2022-08-31T12:04:30.446Z,23.98
2022-08-31T12:09:44.858Z,23.71
2022-08-31T12:14:57.144Z,23.16
2022-08-31T12:20:08.524Z,23.21
2022-08-31T12:25:22.327Z,23.58
2022-08-31T12:30:19.164Z,23.57
2022-08-31T12:35:19.997Z,23.64
2022-08-31T12:40:22.157Z,23.21
2022-08-31T12:45:15.115Z,22.85
2022-08-31T12:50:21.934Z,22.84
2022-08-31T12:55:28.969Z,22.76
2022-08-31T13:00:23.017Z,22.86
2022-08-31T13:05:25.657Z,23.01
2022-08-31T13:10:30.445Z,23.18
2022-08-31T13:15:30.162Z,23.01
2022-08-31T13:20:26.458Z,22.53
2022-08-31T13:25:32.036Z,22.44
2022-08-31T13:30:25.466Z,22.62
2022-08-31T13:35:21.016Z,22.72
2022-08-31T13:40:18.559Z,22.67
2022-08-31T13:45:30.253Z,22.56
2022-08-31T13:50:25.352Z,22.58
2022-08-31T13:55:29.110Z,22.46
2022-08-31T14:00:34.845Z,22.13
2022-08-31T14:05:32.572Z,22.06
2022-08-31T14:10:32.701Z,22.04
2022-08-31T14:15:41.164Z,22.13
2022-08-31T14:20:36.447Z,22.37
2022-08-31T14:25:28.123Z,22.26
2022-08-31T14:30:21.123Z,22.12
2022-08-31T14:35:12.816Z,21.98
2022-08-31T14:40:07.115Z,21.85
2022-08-31T14:44:59.585Z,21.95
2022-08-31T14:49:51.869Z,22.20
2022-08-31T14:54:44.279Z,22.12
2022-08-31T14:59:37.704Z,21.99
2022-08-31T15:04:33.213Z,22.06
2022-08-31T15:09:24.890Z,21.91
2022-08-31T15:14:17.056Z,21.73
2022-08-31T15:19:12.161Z,21.82
2022-08-31T15:24:03.881Z,22.08
2022-08-31T15:28:57.225Z,22.21
2022-08-31T15:33:49.717Z,22.01
2022-08-31T15:38:43.649Z,21.93
2022-08-31T15:43:36.292Z,21.77
2022-08-31T15:48:45.879Z,21.63
2022-08-31T15:53:41.819Z,21.46
2022-08-31T15:58:34.810Z,21.61
2022-08-31T16:03:26.879Z,21.77
2022-08-31T16:08:22.265Z,21.81
2022-08-31T16:13:15.911Z,21.72
2022-08-31T16:18:08.021Z,21.61
2022-08-31T16:23:00.728Z,21.52
2022-08-31T16:27:54.017Z,21.45
2022-08-31T16:32:48.168Z,21.38
2022-08-31T16:37:43.448Z,21.30
2022-08-31T16:42:35.264Z,21.27
2022-08-31T16:47:26.977Z,21.31
2022-08-31T16:52:24.211Z,21.36
2022-08-31T16:57:20.927Z,21.39
2022-08-31T17:02:14.117Z,21.36
2022-08-31T17:07:06.980Z,21.28
2022-08-31T17:12:02.131Z,21.11
2022-08-31T17:16:54.031Z,20.97
2022-08-31T17:21:50.602Z,20.85
2022-08-31T17:26:42.699Z,20.70
2022-08-31T17:31:42.130Z,20.57
2022-08-31T17:36:37.356Z,20.47
2022-08-31T17:41:29.437Z,20.38
2022-08-31T17:46:21.288Z,20.31
2022-08-31T17:51:28.425Z,20.23
2022-08-31T17:56:24.494Z,20.13
2022-08-31T18:01:20.114Z,20.02
2022-08-31T18:06:11.916Z,19.92
2022-08-31T18:11:03.621Z,19.78
2022-08-31T18:15:56.353Z,19.66
2022-08-31T18:20:48.363Z,19.57
2022-08-31T18:25:40.900Z,19.45
2022-08-31T18:30:34.680Z,19.38
2022-08-31T18:35:30.369Z,19.22
2022-08-31T18:40:42.427Z,19.09
2022-08-31T18:45:39.473Z,19.01
2022-08-31T18:50:35.043Z,18.92
2022-08-31T18:55:28.202Z,18.77
2022-08-31T19:00:20.245Z,18.67
2022-08-31T19:05:15.736Z,18.56
2022-08-31T19:10:12.871Z,18.41
2022-08-31T19:15:06.495Z,18.36
2022-08-31T19:19:58.308Z,18.29
2022-08-31T19:24:49.970Z,18.22
2022-08-31T19:29:42.257Z,18.13
2022-08-31T19:34:36.397Z,18.03
2022-08-31T19:39:37.036Z,17.96
2022-08-31T19:44:54.470Z,17.88
2022-08-31T19:49:43.271Z,17.78
2022-08-31T19:54:39.479Z,17.71
2022-08-31T19:59:31.114Z,17.65
2022-08-31T20:04:27.916Z,17.59
2022-08-31T20:09:22.505Z,17.54
2022-08-31T20:14:15.977Z,17.46
2022-08-31T20:19:08.790Z,17.40
2022-08-31T20:24:06.058Z,17.32
2022-08-31T20:29:02.432Z,17.25
2022-08-31T20:33:58.504Z,17.17
2022-08-31T20:38:57.087Z,17.10
2022-08-31T20:43:48.726Z,17.04
2022-08-31T20:48:58.898Z,16.97
2022-08-31T20:53:51.287Z,16.91
2022-08-31T20:58:45.701Z,16.82
2022-08-31T21:03:37.959Z,16.76
2022-08-31T21:08:29.598Z,16.67
2022-08-31T21:13:21.380Z,16.59
2022-08-31T21:18:17.679Z,16.50
2022-08-31T21:23:10.505Z,16.41
2022-08-31T21:28:02.741Z,16.33
2022-08-31T21:32:54.423Z,16.27
2022-08-31T21:37:46.053Z,16.18
2022-08-31T21:42:37.792Z,16.11
2022-08-31T21:47:30.025Z,16.04
2022-08-31T21:52:21.653Z,15.99
2022-08-31T21:57:14.214Z,15.92
2022-08-31T22:02:11.198Z,15.86
2022-08-31T22:07:06.311Z,15.78
2022-08-31T22:12:00.105Z,15.71
2022-08-31T22:16:53.322Z,15.65
2022-08-31T22:21:47.892Z,15.59
2022-08-31T22:26:46.035Z,15.51
2022-08-31T22:31:39.585Z,15.46
2022-08-31T22:36:32.482Z,15.37
2022-08-31T22:41:24.510Z,15.32
2022-08-31T22:46:20.346Z,15.26
2022-08-31T22:51:13.103Z,15.21
2022-08-31T22:56:11.674Z,15.15
2022-08-31T23:01:03.911Z,15.11
2022-08-31T23:05:55.670Z,15.06
2022-08-31T23:10:47.546Z,15.01
2022-08-31T23:15:40.235Z,14.98
2022-08-31T23:20:31.949Z,14.92
2022-08-31T23:25:24.697Z,14.89
2022-08-31T23:30:19.285Z,14.84
2022-08-31T23:35:13.622Z,14.82
2022-08-31T23:40:06.678Z,14.79
2022-08-31T23:44:59.015Z,14.76
2022-08-31T23:49:52.472Z,14.72
2022-08-31T23:54:48.021Z,14.69
2022-08-31T23:59:39.745Z,14.64
